Portada
METAR-TAF:

METAR-TAF

Aeropuertos :

Cognac, Francia

latitud: 45-40N, longitud: 000-19W, altitud: 30 m

Observación

El informe se hizo hace 35 minutos, a las 09:00 UTC
Viento 13 kt del norte-noreste
Temperatura 7°C
Humedad 66%
Presión 1035 hPa
Visibilidad 10 km o más
sin nubes por debajo de 1500 m y sin presencia de cumulonimbus.

METAR: LFBG 270900Z AUTO 02013KT CAVOK 07/01 Q1035

Hora: 10:35 (09:35 UTC)

Pronóstico

El informe se hizo hace 19 horas y 35 minutos, a las 14:00 UTC
Pronóstico válido del 26 a las 15 UTC al 27 a las 15 UTC
Viento 10 kt del noreste
Visibilidad 10 km o más
Nubes dispersas a una altura de 3000 ft
Temporalmente
del 27 a las 10 UTC al 27 a las 15 UTC
Viento 15 kt del noreste con ráfagas de 25 kt

TAF: LFBG 261400Z 2615/2715 04010KT 9999 SCT030 TEMPO 2710/2715 04015G25KT

Observaciones y pronósticos meteorológicos de más de 4000 aeropuertos (mensajes METAR y TAF).

Los puntos amarillos y rojos representan las estaciones disponibles.

Ponga el ratón en el punto deseado para ver el nombre de la estación.

Haga clic para ver las observaciones y los pronósticos meteorológicos.

Para cambiar el mapa : haga clic en los botones verdes con una cruz de color negro para hacer un zoom, en el botón verde con un guión para alejar o en las flechas verdes para mapas adyacentes.


METAR-TAF: